Time,TemperatureF,DewpointF,PressureIn,WindDirection,WindDirectionDegrees,WindSpeedMPH,WindSpeedGustMPH,Humidity,HourlyPrecipIn,Conditions,Clouds,dailyrainin,SoftwareType,DateUTC
2013-02-02 00:03:00,27.4,14.5,29.68,South,190,3.0,4.0,58,0.00,,,0.00,Wunderground v.1.15,2013-02-02 06:03:00,
2013-02-02 00:08:00,27.4,14.9,29.69,South,189,9.0,9.0,59,0.00,,,0.00,Wunderground v.1.15,2013-02-02 06:08:00,
2013-02-02 00:13:00,27.4,14.9,29.68,South,183,1.0,5.0,59,0.00,,,0.00,Wunderground v.1.15,2013-02-02 06:13:00,
2013-02-02 00:19:00,27.4,14.9,29.68,SSW,193,7.0,7.0,59,0.00,,,0.00,Wunderground v.1.15,2013-02-02 06:19:00,
2013-02-02 00:24:00,27.3,15.2,29.68,South,185,0.0,4.0,60,0.00,,,0.00,Wunderground v.1.15,2013-02-02 06:24:00,
2013-02-02 00:29:00,27.3,15.2,29.68,SSW,197,0.0,4.0,60,0.00,,,0.00,Wunderground v.1.15,2013-02-02 06:29:00,
2013-02-02 00:34:00,-90.0,-96.5,29.68,SSW,196,0.0,3.0,60,0.00,,,0.00,Wunderground v.1.15,2013-02-02 06:34:00,
2013-02-02 00:40:00,-90.0,-96.5,29.67,SSW,196,0.0,1.0,60,0.00,,,0.00,Wunderground v.1.15,2013-02-02 06:40:00,
2013-02-02 00:51:00,27.3,15.6,29.67,SSW,196,0.0,1.0,61,0.00,,,0.00,Wunderground v.1.15,2013-02-02 06:51:00,
2013-02-02 00:56:00,27.3,15.6,29.67,SSW,196,1.0,1.0,61,0.00,,,0.00,Wunderground v.1.15,2013-02-02 06:56:00,
2013-02-02 01:02:00,27.4,15.3,29.66,South,182,4.0,4.0,60,0.00,,,0.00,Wunderground v.1.15,2013-02-02 07:02:00,
2013-02-02 01:07:00,27.4,15.7,29.66,South,184,1.0,4.0,61,0.00,,,0.00,Wunderground v.1.15,2013-02-02 07:07:00,
2013-02-02 01:12:00,27.5,15.8,29.66,South,187,3.0,3.0,61,0.00,,,0.00,Wunderground v.1.15,2013-02-02 07:12:00,
2013-02-02 01:17:00,27.5,15.8,29.65,South,174,4.0,4.0,61,0.00,,,0.00,Wunderground v.1.15,2013-02-02 07:17:00,
2013-02-02 01:32:00,27.8,16.1,29.65,South,178,4.0,4.0,61,0.00,,,0.00,Wunderground v.1.15,2013-02-02 07:32:00,
2013-02-02 01:37:00,28.7,16.6,29.64,South,176,0.0,5.0,60,0.00,,,0.00,Wunderground v.1.15,2013-02-02 07:37:00,
2013-02-02 01:43:00,-999.9,-99.9,29.64,South,188,5.0,7.0,60,0.00,,,0.00,Wunderground v.1.15,2013-02-02 07:43:00,
2013-02-02 01:50:00,29.2,16.6,29.64,SSW,196,1.0,7.0,59,0.00,,,0.00,Wunderground v.1.15,2013-02-02 07:50:00,
2013-02-02 01:55:00,28.5,16.4,29.64,South,190,2.0,4.0,60,0.00,,,0.00,Wunderground v.1.15,2013-02-02 07:55:00,
2013-02-02 02:01:00,28.8,16.6,29.64,South,188,0.0,3.0,60,0.00,,,0.00,Wunderground v.1.15,2013-02-02 08:01:00,
2013-02-02 02:06:00,28.4,16.7,29.64,South,188,4.0,7.0,61,0.00,,,0.00,Wunderground v.1.15,2013-02-02 08:06:00,
2013-02-02 02:11:00,28.8,15.9,29.63,SSW,199,3.0,4.0,58,0.00,,,0.00,Wunderground v.1.15,2013-02-02 08:11:00,
2013-02-02 02:17:00,28.5,16.4,29.63,South,190,5.0,12.0,60,0.00,,,0.00,Wunderground v.1.15,2013-02-02 08:17:00,
2013-02-02 02:22:00,28.5,16.4,29.63,SSW,202,6.0,11.0,60,0.00,,,0.00,Wunderground v.1.15,2013-02-02 08:22:00,
2013-02-02 02:27:00,28.6,16.1,29.63,SSW,200,6.0,11.0,59,0.00,,,0.00,Wunderground v.1.15,2013-02-02 08:27:00,
2013-02-02 02:32:00,28.6,16.1,29.63,South,186,6.0,7.0,59,0.00,,,0.00,Wunderground v.1.15,2013-02-02 08:32:00,
2013-02-02 02:37:00,28.6,16.5,29.63,South,189,4.0,14.0,60,0.00,,,0.00,Wunderground v.1.15,2013-02-02 08:37:00,
2013-02-02 02:43:00,28.6,16.5,29.63,South,178,8.0,9.0,60,0.00,,,0.00,Wunderground v.1.15,2013-02-02 08:43:00,
2013-02-02 02:48:00,28.6,16.5,29.63,South,191,6.0,10.0,60,0.00,,,0.00,Wunderground v.1.15,2013-02-02 08:48:00,
2013-02-02 02:53:00,28.6,16.8,29.62,SSW,192,4.0,6.0,61,0.00,,,0.00,Wunderground v.1.15,2013-02-02 08:53:00,
2013-02-02 02:58:00,28.6,16.8,29.62,SSW,200,6.0,9.0,61,0.00,,,0.00,Wunderground v.1.15,2013-02-02 08:58:00,
2013-02-02 03:03:00,28.7,16.9,29.61,South,191,3.0,8.0,61,0.00,,,0.00,Wunderground v.1.15,2013-02-02 09:03:00,
2013-02-02 03:08:00,28.8,17.0,29.61,South,188,5.0,8.0,61,0.00,,,0.00,Wunderground v.1.15,2013-02-02 09:08:00,
2013-02-02 03:13:00,28.8,17.0,29.61,South,189,2.0,9.0,61,0.00,,,0.00,Wunderground v.1.15,2013-02-02 09:13:00,
2013-02-02 03:18:00,28.8,17.4,29.60,South,188,4.0,9.0,62,0.00,,,0.00,Wunderground v.1.15,2013-02-02 09:18:00,
2013-02-02 03:23:00,28.9,17.1,29.60,South,184,6.0,8.0,61,0.00,,,0.00,Wunderground v.1.15,2013-02-02 09:23:00,
2013-02-02 03:28:00,28.9,17.1,29.60,SSW,200,5.0,9.0,61,0.00,,,0.00,Wunderground v.1.15,2013-02-02 09:28:00,
2013-02-02 03:33:00,29.0,17.2,29.59,SSW,205,7.0,10.0,61,0.00,,,0.00,Wunderground v.1.15,2013-02-02 09:33:00,
2013-02-02 03:38:00,29.1,17.3,29.59,SSW,195,4.0,11.0,61,0.00,,,0.00,Wunderground v.1.15,2013-02-02 09:38:00,
2013-02-02 03:43:00,29.2,17.0,29.59,South,191,5.0,16.0,60,0.00,,,0.00,Wunderground v.1.15,2013-02-02 09:43:00,
2013-02-02 03:48:00,29.3,17.1,29.59,SW,236,5.0,16.0,60,0.00,,,0.00,Wunderground v.1.15,2013-02-02 09:48:00,
2013-02-02 03:53:00,29.3,17.1,29.59,SSW,209,4.0,9.0,60,0.00,,,0.00,Wunderground v.1.15,2013-02-02 09:53:00,
2013-02-02 03:58:00,29.4,17.2,29.59,South,183,8.0,9.0,60,0.00,,,0.00,Wunderground v.1.15,2013-02-02 09:58:00,
2013-02-02 04:03:00,29.4,17.6,29.58,SSW,210,6.0,6.0,61,0.00,,,0.00,Wunderground v.1.15,2013-02-02 10:03:00,
2013-02-02 04:08:00,29.5,17.3,29.59,SSW,203,2.0,11.0,60,0.00,,,0.00,Wunderground v.1.15,2013-02-02 10:08:00,
2013-02-02 04:13:00,29.6,17.4,29.59,SSW,206,7.0,7.0,60,0.00,,,0.00,Wunderground v.1.15,2013-02-02 10:13:00,
2013-02-02 04:18:00,29.6,17.4,29.58,SSW,204,1.0,9.0,60,0.00,,,0.00,Wunderground v.1.15,2013-02-02 10:18:00,
2013-02-02 04:24:00,29.7,17.9,29.58,SSW,192,5.0,8.0,61,0.00,,,0.00,Wunderground v.1.15,2013-02-02 10:24:00,
2013-02-02 04:29:00,29.9,18.1,29.58,SSW,198,6.0,8.0,61,0.00,,,0.00,Wunderground v.1.15,2013-02-02 10:29:00,
2013-02-02 04:34:00,29.7,17.9,29.58,SW,219,4.0,5.0,61,0.00,,,0.00,Wunderground v.1.15,2013-02-02 10:34:00,
2013-02-02 04:40:00,29.8,17.6,29.58,SSW,207,4.0,4.0,60,0.00,,,0.00,Wunderground v.1.15,2013-02-02 10:40:00,
2013-02-02 04:45:00,29.9,18.1,29.59,SW,215,0.0,7.0,61,0.00,,,0.00,Wunderground v.1.15,2013-02-02 10:45:00,
2013-02-02 04:50:00,29.9,18.1,29.59,SSW,205,1.0,1.0,61,0.00,,,0.00,Wunderground v.1.15,2013-02-02 10:50:00,
2013-02-02 04:55:00,29.9,18.1,29.58,SW,216,5.0,9.0,61,0.00,,,0.00,Wunderground v.1.15,2013-02-02 10:55:00,
2013-02-02 05:01:00,30.0,18.2,29.57,SSW,196,4.0,4.0,61,0.00,,,0.00,Wunderground v.1.15,2013-02-02 11:01:00,
2013-02-02 05:06:00,30.0,18.2,29.58,SSW,200,6.0,9.0,61,0.00,,,0.00,Wunderground v.1.15,2013-02-02 11:06:00,
2013-02-02 05:11:00,30.1,18.3,29.58,SSW,198,5.0,5.0,61,0.00,,,0.00,Wunderground v.1.15,2013-02-02 11:11:00,
2013-02-02 05:16:00,30.1,18.3,29.58,SSW,202,1.0,5.0,61,0.00,,,0.00,Wunderground v.1.15,2013-02-02 11:16:00,
2013-02-02 05:21:00,30.2,18.4,29.58,SW,235,7.0,8.0,61,0.00,,,0.00,Wunderground v.1.15,2013-02-02 11:21:00,
2013-02-02 05:27:00,30.4,18.5,29.58,SSW,200,1.0,8.0,61,0.00,,,0.00,Wunderground v.1.15,2013-02-02 11:27:00,
2013-02-02 05:32:00,30.5,19.0,29.58,SW,229,2.0,3.0,62,0.00,,,0.00,Wunderground v.1.15,2013-02-02 11:32:00,
2013-02-02 05:37:00,30.5,19.0,29.58,SW,228,2.0,7.0,62,0.00,,,0.00,Wunderground v.1.15,2013-02-02 11:37:00,
2013-02-02 05:42:00,30.6,19.1,29.58,WSW,247,4.0,7.0,62,0.00,,,0.00,Wunderground v.1.15,2013-02-02 11:42:00,
2013-02-02 05:48:00,30.7,19.2,29.57,SW,232,0.0,7.0,62,0.00,,,0.00,Wunderground v.1.15,2013-02-02 11:48:00,
2013-02-02 05:53:00,30.7,19.2,29.57,SW,226,8.0,8.0,62,0.00,,,0.00,Wunderground v.1.15,2013-02-02 11:53:00,
2013-02-02 05:58:00,30.8,19.7,29.57,SW,221,4.0,8.0,63,0.00,,,0.00,Wunderground v.1.15,2013-02-02 11:58:00,
2013-02-02 06:03:00,30.8,19.7,29.57,SW,223,5.0,8.0,63,0.00,,,0.00,Wunderground v.1.15,2013-02-02 12:03:00,
2013-02-02 06:08:00,30.8,19.3,29.58,SW,232,2.0,12.0,62,0.00,,,0.00,Wunderground v.1.15,2013-02-02 12:08:00,
2013-02-02 06:14:00,30.8,19.3,29.58,WSW,246,13.0,13.0,62,0.00,,,0.00,Wunderground v.1.15,2013-02-02 12:14:00,
2013-02-02 06:19:00,30.8,19.3,29.58,SW,225,5.0,13.0,62,0.00,,,0.00,Wunderground v.1.15,2013-02-02 12:19:00,
2013-02-02 06:25:00,30.9,19.4,29.58,SW,232,2.0,6.0,62,0.00,,,0.00,Wunderground v.1.15,2013-02-02 12:25:00,
2013-02-02 06:30:00,30.9,19.4,29.58,West,277,8.0,11.0,62,0.00,,,0.00,Wunderground v.1.15,2013-02-02 12:30:00,
2013-02-02 06:35:00,30.9,19.4,29.58,SW,230,1.0,10.0,62,0.00,,,0.00,Wunderground v.1.15,2013-02-02 12:35:00,
2013-02-02 06:40:00,30.9,19.4,29.58,WSW,240,6.0,13.0,62,0.00,,,0.00,Wunderground v.1.15,2013-02-02 12:40:00,
2013-02-02 06:45:00,30.9,19.8,29.58,WSW,250,3.0,15.0,63,0.00,,,0.00,Wunderground v.1.15,2013-02-02 12:45:00,
2013-02-02 06:50:00,30.9,19.8,29.58,WSW,240,4.0,15.0,63,0.00,,,0.00,Wunderground v.1.15,2013-02-02 12:50:00,
2013-02-02 06:55:00,30.9,19.8,29.58,West,260,0.0,11.0,63,0.00,,,0.00,Wunderground v.1.15,2013-02-02 12:55:00,
2013-02-02 07:00:00,30.9,19.8,29.58,WSW,241,4.0,13.0,63,0.00,,,0.00,Wunderground v.1.15,2013-02-02 13:00:00,
2013-02-02 07:05:00,30.8,19.7,29.58,West,261,4.0,8.0,63,0.00,,,0.00,Wunderground v.1.15,2013-02-02 13:05:00,
2013-02-02 07:10:00,30.9,19.8,29.58,West,261,4.0,10.0,63,0.00,,,0.00,Wunderground v.1.15,2013-02-02 13:10:00,
2013-02-02 07:15:00,30.9,19.8,29.58,WSW,251,2.0,16.0,63,0.00,,,0.00,Wunderground v.1.15,2013-02-02 13:15:00,
2013-02-02 07:20:00,30.9,19.8,29.58,WSW,246,0.0,5.0,63,0.00,,,0.00,Wunderground v.1.15,2013-02-02 13:20:00,
2013-02-02 07:26:00,30.8,19.7,29.58,West,259,4.0,6.0,63,0.00,,,0.00,Wunderground v.1.15,2013-02-02 13:26:00,
2013-02-02 07:31:00,30.7,20.0,29.59,WSW,252,0.0,3.0,64,0.00,,,0.00,Wunderground v.1.15,2013-02-02 13:31:00,
2013-02-02 07:36:00,30.6,19.9,29.59,West,267,5.0,6.0,64,0.00,,,0.00,Wunderground v.1.15,2013-02-02 13:36:00,
2013-02-02 07:41:00,30.6,20.2,29.58,WSW,246,0.0,3.0,65,0.00,,,0.00,Wunderground v.1.15,2013-02-02 13:41:00,
2013-02-02 07:46:00,30.6,20.2,29.59,NW,304,0.0,13.0,65,0.00,,,0.00,Wunderground v.1.15,2013-02-02 13:46:00,
2013-02-02 07:51:00,30.5,20.1,29.59,WNW,296,1.0,9.0,65,0.00,,,0.00,Wunderground v.1.15,2013-02-02 13:51:00,
2013-02-02 07:57:00,30.5,20.1,29.59,WSW,257,0.0,14.0,65,0.00,,,0.00,Wunderground v.1.15,2013-02-02 13:57:00,
2013-02-02 08:02:00,30.4,20.0,29.59,West,279,8.0,8.0,65,0.00,,,0.00,Wunderground v.1.15,2013-02-02 14:02:00,
2013-02-02 08:07:00,30.3,20.3,29.59,WSW,255,1.0,8.0,66,0.00,,,0.00,Wunderground v.1.15,2013-02-02 14:07:00,
2013-02-02 08:12:00,30.4,20.4,29.60,West,267,7.0,7.0,66,0.00,,,0.00,Wunderground v.1.15,2013-02-02 14:12:00,
2013-02-02 08:17:00,30.5,20.1,29.59,West,273,0.0,12.0,65,0.00,,,0.00,Wunderground v.1.15,2013-02-02 14:17:00,
2013-02-02 08:23:00,30.6,20.2,29.59,West,266,0.0,5.0,65,0.00,,,0.00,Wunderground v.1.15,2013-02-02 14:23:00,
2013-02-02 08:29:00,30.7,20.3,29.60,WNW,283,0.0,15.0,65,0.00,,,0.00,Wunderground v.1.15,2013-02-02 14:29:00,
2013-02-02 08:34:00,30.9,20.5,29.60,West,280,5.0,11.0,65,0.00,,,0.00,Wunderground v.1.15,2013-02-02 14:34:00,
2013-02-02 08:39:00,-999.9,-99.9,29.60,West,261,4.0,12.0,65,0.00,,,0.00,Wunderground v.1.15,2013-02-02 14:39:00,
2013-02-02 08:45:00,31.4,20.6,29.60,WSW,251,6.0,16.0,64,0.00,,,0.00,Wunderground v.1.15,2013-02-02 14:45:00,
2013-02-02 08:50:00,31.5,21.1,29.61,WNW,292,4.0,4.0,65,0.00,,,0.00,Wunderground v.1.15,2013-02-02 14:50:00,
2013-02-02 08:56:00,31.6,21.2,29.61,NW,313,13.0,14.0,65,0.00,,,0.00,Wunderground v.1.15,2013-02-02 14:56:00,
2013-02-02 09:01:00,31.9,21.5,29.61,WSW,258,5.0,7.0,65,0.00,,,0.00,Wunderground v.1.15,2013-02-02 15:01:00,
2013-02-02 09:06:00,32.0,21.2,29.61,WNW,297,7.0,16.0,64,0.00,,,0.00,Wunderground v.1.15,2013-02-02 15:06:00,
2013-02-02 09:12:00,31.9,21.1,29.61,WNW,292,12.0,12.0,64,0.00,,,0.00,Wunderground v.1.15,2013-02-02 15:12:00,
2013-02-02 09:18:00,32.0,21.2,29.61,NW,305,11.0,17.0,64,0.00,,,0.00,Wunderground v.1.15,2013-02-02 15:18:00,
2013-02-02 09:23:00,32.0,21.6,29.61,West,269,5.0,8.0,65,0.00,,,0.00,Wunderground v.1.15,2013-02-02 15:23:00,
2013-02-02 09:28:00,32.0,21.9,29.61,WSW,243,4.0,16.0,66,0.00,,,0.00,Wunderground v.1.15,2013-02-02 15:28:00,
2013-02-02 09:33:00,32.3,21.8,29.61,WSW,254,10.0,12.0,65,0.00,,,0.00,Wunderground v.1.15,2013-02-02 15:33:00,
2013-02-02 09:38:00,32.5,22.0,29.61,West,271,0.0,12.0,65,0.00,,,0.00,Wunderground v.1.15,2013-02-02 15:38:00,
2013-02-02 09:44:00,32.7,21.9,29.62,NW,315,7.0,15.0,64,0.00,,,0.00,Wunderground v.1.15,2013-02-02 15:44:00,
2013-02-02 09:49:00,32.4,21.6,29.61,NW,306,0.0,15.0,64,0.00,,,0.00,Wunderground v.1.15,2013-02-02 15:49:00,
2013-02-02 09:54:00,32.6,22.1,29.61,West,270,9.0,12.0,65,0.00,,,0.00,Wunderground v.1.15,2013-02-02 15:54:00,
2013-02-02 09:59:00,32.7,21.9,29.61,WNW,287,7.0,18.0,64,0.00,,,0.00,Wunderground v.1.15,2013-02-02 15:59:00,
2013-02-02 10:04:00,32.6,21.8,29.61,NW,308,11.0,15.0,64,0.00,,,0.00,Wunderground v.1.15,2013-02-02 16:04:00,
2013-02-02 10:09:00,32.8,22.0,29.61,WNW,302,6.0,15.0,64,0.00,,,0.00,Wunderground v.1.15,2013-02-02 16:09:00,
2013-02-02 10:14:00,32.8,22.0,29.62,West,268,1.0,13.0,64,0.00,,,0.00,Wunderground v.1.15,2013-02-02 16:14:00,
2013-02-02 10:19:00,32.9,22.4,29.63,West,277,14.0,19.0,65,0.00,,,0.00,Wunderground v.1.15,2013-02-02 16:19:00,
2013-02-02 10:25:00,34.2,23.3,29.62,NW,307,4.0,16.0,64,0.00,,,0.00,Wunderground v.1.15,2013-02-02 16:25:00,
2013-02-02 10:30:00,33.4,22.5,29.63,NW,311,6.0,7.0,64,0.00,,,0.00,Wunderground v.1.15,2013-02-02 16:30:00,
2013-02-02 10:36:00,33.1,22.2,29.63,WNW,300,19.0,28.0,64,0.00,,,0.00,Wunderground v.1.15,2013-02-02 16:36:00,
2013-02-02 10:41:00,33.3,22.4,29.63,NW,318,8.0,13.0,64,0.00,,,0.00,Wunderground v.1.15,2013-02-02 16:41:00,
2013-02-02 10:46:00,33.5,22.6,29.63,NW,315,8.0,14.0,64,0.00,,,0.00,Wunderground v.1.15,2013-02-02 16:46:00,
2013-02-02 10:51:00,33.8,22.5,29.63,West,279,7.0,12.0,63,0.00,,,0.00,Wunderground v.1.15,2013-02-02 16:51:00,
2013-02-02 10:56:00,33.8,22.1,29.63,WNW,297,0.0,18.0,62,0.00,,,0.00,Wunderground v.1.15,2013-02-02 16:56:00,
2013-02-02 11:01:00,33.9,22.2,29.63,West,268,5.0,7.0,62,0.00,,,0.00,Wunderground v.1.15,2013-02-02 17:01:00,
2013-02-02 11:07:00,34.0,22.3,29.63,NW,315,9.0,15.0,62,0.00,,,0.00,Wunderground v.1.15,2013-02-02 17:07:00,
2013-02-02 11:12:00,34.0,22.7,29.64,WNW,282,4.0,7.0,63,0.00,,,0.00,Wunderground v.1.15,2013-02-02 17:12:00,
2013-02-02 11:17:00,34.1,22.0,29.64,West,271,5.0,17.0,61,0.00,,,0.00,Wunderground v.1.15,2013-02-02 17:17:00,
2013-02-02 11:22:00,33.7,21.7,29.64,NW,318,8.0,19.0,61,0.00,,,0.00,Wunderground v.1.15,2013-02-02 17:22:00,
2013-02-02 11:28:00,33.2,21.6,29.64,North,360,8.0,19.0,62,0.00,,,0.00,Wunderground v.1.15,2013-02-02 17:28:00,
2013-02-02 11:33:00,33.0,21.4,29.64,West,275,9.0,17.0,62,0.00,,,0.00,Wunderground v.1.15,2013-02-02 17:33:00,
2013-02-02 11:38:00,33.0,21.4,29.64,NW,317,10.0,17.0,62,0.00,,,0.00,Wunderground v.1.15,2013-02-02 17:38:00,
2013-02-02 11:43:00,32.9,21.7,29.64,WNW,296,1.0,9.0,63,0.00,,,0.00,Wunderground v.1.15,2013-02-02 17:43:00,
2013-02-02 11:49:00,33.2,22.0,29.63,WNW,301,4.0,16.0,63,0.00,,,0.00,Wunderground v.1.15,2013-02-02 17:49:00,
2013-02-02 11:55:00,33.6,22.0,29.63,NW,319,8.0,12.0,62,0.00,,,0.01,Wunderground v.1.15,2013-02-02 17:55:00,
2013-02-02 12:00:00,33.1,21.1,29.63,NW,315,12.0,12.0,61,0.00,,,0.01,Wunderground v.1.15,2013-02-02 18:00:00,
2013-02-02 12:06:00,32.9,20.9,29.63,NW,307,4.0,14.0,61,0.00,,,0.01,Wunderground v.1.15,2013-02-02 18:06:00,
2013-02-02 12:12:00,33.0,21.0,29.63,NW,315,7.0,8.0,61,0.00,,,0.01,Wunderground v.1.15,2013-02-02 18:12:00,
2013-02-02 12:17:00,32.9,20.9,29.64,West,268,1.0,11.0,61,0.00,,,0.01,Wunderground v.1.15,2013-02-02 18:17:00,
2013-02-02 12:23:00,32.8,20.8,29.64,NNW,341,10.0,13.0,61,0.00,,,0.01,Wunderground v.1.15,2013-02-02 18:23:00,
2013-02-02 12:28:00,32.7,21.1,29.64,NNW,327,4.0,18.0,62,0.00,,,0.01,Wunderground v.1.15,2013-02-02 18:28:00,
2013-02-02 12:34:00,32.4,20.0,29.63,North,355,7.0,18.0,60,0.00,,,0.01,Wunderground v.1.15,2013-02-02 18:34:00,
2013-02-02 12:39:00,32.2,19.1,29.64,WNW,296,19.0,22.0,58,0.00,,,0.01,Wunderground v.1.15,2013-02-02 18:39:00,
2013-02-02 12:44:00,32.0,18.9,29.64,WNW,299,7.0,15.0,58,0.00,,,0.01,Wunderground v.1.15,2013-02-02 18:44:00,
2013-02-02 12:50:00,31.9,19.2,29.63,WNW,302,9.0,16.0,59,0.00,,,0.01,Wunderground v.1.15,2013-02-02 18:50:00,
2013-02-02 12:56:00,32.0,18.9,29.63,NW,325,5.0,18.0,58,0.00,,,0.01,Wunderground v.1.15,2013-02-02 18:56:00,
2013-02-02 13:01:00,31.6,18.5,29.63,North,5,2.0,8.0,58,0.00,,,0.01,Wunderground v.1.15,2013-02-02 19:01:00,
2013-02-02 13:06:00,31.4,19.1,29.63,WNW,290,12.0,13.0,60,0.00,,,0.01,Wunderground v.1.15,2013-02-02 19:06:00,
2013-02-02 13:11:00,31.4,19.5,29.63,North,360,6.0,8.0,61,0.00,,,0.01,Wunderground v.1.15,2013-02-02 19:11:00,
2013-02-02 13:16:00,31.3,19.0,29.63,NW,320,4.0,20.0,60,0.00,,,0.01,Wunderground v.1.15,2013-02-02 19:16:00,
2013-02-02 13:21:00,31.0,19.1,29.63,WSW,258,18.0,18.0,61,0.00,,,0.01,Wunderground v.1.15,2013-02-02 19:21:00,
2013-02-02 13:26:00,31.1,19.2,29.63,NW,322,5.0,20.0,61,0.00,,,0.01,Wunderground v.1.15,2013-02-02 19:26:00,
2013-02-02 13:31:00,31.1,19.2,29.64,NW,322,9.0,11.0,61,0.00,,,0.01,Wunderground v.1.15,2013-02-02 19:31:00,
2013-02-02 13:36:00,31.1,18.8,29.63,WNW,290,6.0,18.0,60,0.00,,,0.01,Wunderground v.1.15,2013-02-02 19:36:00,
2013-02-02 13:41:00,31.1,18.8,29.63,NNW,331,4.0,8.0,60,0.00,,,0.01,Wunderground v.1.15,2013-02-02 19:41:00,
2013-02-02 13:46:00,31.4,19.5,29.63,West,264,0.0,14.0,61,0.00,,,0.01,Wunderground v.1.15,2013-02-02 19:46:00,
2013-02-02 13:51:00,31.6,18.9,29.62,NW,320,15.0,15.0,59,0.00,,,0.01,Wunderground v.1.15,2013-02-02 19:51:00,
2013-02-02 13:56:00,31.4,18.7,29.63,West,263,3.0,15.0,59,0.00,,,0.01,Wunderground v.1.15,2013-02-02 19:56:00,
2013-02-02 14:01:00,31.7,19.4,29.63,WNW,294,13.0,14.0,60,0.00,,,0.01,Wunderground v.1.15,2013-02-02 20:01:00,
2013-02-02 14:06:00,31.9,19.2,29.63,WNW,292,9.0,18.0,59,0.00,,,0.01,Wunderground v.1.15,2013-02-02 20:06:00,
2013-02-02 14:12:00,31.7,19.0,29.63,WNW,289,5.0,13.0,59,0.00,,,0.01,Wunderground v.1.15,2013-02-02 20:12:00,
2013-02-02 14:17:00,31.5,19.2,29.64,WSW,248,0.0,13.0,60,0.00,,,0.01,Wunderground v.1.15,2013-02-02 20:17:00,
2013-02-02 14:22:00,31.7,19.4,29.64,West,281,2.0,13.0,60,0.00,,,0.01,Wunderground v.1.15,2013-02-02 20:22:00,
2013-02-02 14:28:00,31.6,18.9,29.64,NW,320,10.0,18.0,59,0.00,,,0.01,Wunderground v.1.15,2013-02-02 20:28:00,
2013-02-02 14:33:00,31.6,19.7,29.64,West,279,8.0,12.0,61,0.00,,,0.01,Wunderground v.1.15,2013-02-02 20:33:00,
2013-02-02 14:38:00,31.7,19.4,29.64,WNW,285,12.0,13.0,60,0.00,,,0.01,Wunderground v.1.15,2013-02-02 20:38:00,
2013-02-02 14:43:00,32.0,20.1,29.64,West,260,3.0,8.0,61,0.00,,,0.01,Wunderground v.1.15,2013-02-02 20:43:00,
2013-02-02 14:48:00,32.4,20.4,29.63,WNW,303,9.0,12.0,61,0.00,,,0.01,Wunderground v.1.15,2013-02-02 20:48:00,
2013-02-02 14:54:00,32.4,20.0,29.64,WNW,298,4.0,9.0,60,0.00,,,0.01,Wunderground v.1.15,2013-02-02 20:54:00,
2013-02-02 14:59:00,32.0,19.7,29.64,NNW,328,2.0,15.0,60,0.00,,,0.01,Wunderground v.1.15,2013-02-02 20:59:00,
2013-02-02 15:04:00,32.0,20.1,29.64,WNW,283,2.0,20.0,61,0.00,,,0.01,Wunderground v.1.15,2013-02-02 21:04:00,
2013-02-02 15:09:00,31.8,19.9,29.64,WNW,284,4.0,20.0,61,0.00,,,0.01,Wunderground v.1.15,2013-02-02 21:09:00,
2013-02-02 15:14:00,31.5,20.0,29.64,WNW,293,8.0,13.0,62,0.00,,,0.01,Wunderground v.1.15,2013-02-02 21:14:00,
2013-02-02 15:19:00,31.1,20.0,29.64,NW,317,8.0,15.0,63,0.00,,,0.01,Wunderground v.1.15,2013-02-02 21:19:00,
2013-02-02 15:24:00,30.8,19.7,29.64,WSW,257,2.0,12.0,63,0.00,,,0.01,Wunderground v.1.15,2013-02-02 21:24:00,
2013-02-02 15:29:00,30.9,19.8,29.64,North,5,3.0,12.0,63,0.00,,,0.01,Wunderground v.1.15,2013-02-02 21:29:00,
2013-02-02 15:34:00,31.0,19.5,29.64,NW,315,7.0,15.0,62,0.00,,,0.01,Wunderground v.1.15,2013-02-02 21:34:00,
2013-02-02 15:39:00,31.1,20.0,29.64,NW,313,7.0,15.0,63,0.00,,,0.01,Wunderground v.1.15,2013-02-02 21:39:00,
2013-02-02 15:45:00,31.3,19.8,29.64,NW,304,9.0,9.0,62,0.00,,,0.01,Wunderground v.1.15,2013-02-02 21:45:00,
2013-02-02 15:50:00,31.3,19.8,29.65,NW,323,4.0,13.0,62,0.00,,,0.01,Wunderground v.1.15,2013-02-02 21:50:00,
2013-02-02 15:55:00,31.3,19.8,29.64,NW,325,1.0,8.0,62,0.00,,,0.01,Wunderground v.1.15,2013-02-02 21:55:00,
2013-02-02 16:00:00,31.2,19.7,29.64,NW,313,5.0,5.0,62,0.00,,,0.01,Wunderground v.1.15,2013-02-02 22:00:00,
2013-02-02 16:05:00,31.2,20.1,29.64,NNW,327,5.0,6.0,63,0.00,,,0.01,Wunderground v.1.15,2013-02-02 22:05:00,
2013-02-02 16:11:00,30.9,19.4,29.64,NNW,333,0.0,4.0,62,0.00,,,0.01,Wunderground v.1.15,2013-02-02 22:11:00,
2013-02-02 16:16:00,30.6,19.5,29.65,NW,311,9.0,11.0,63,0.00,,,0.01,Wunderground v.1.15,2013-02-02 22:16:00,
2013-02-02 16:21:00,30.5,19.4,29.65,West,275,6.0,6.0,63,0.00,,,0.01,Wunderground v.1.15,2013-02-02 22:21:00,
2013-02-02 16:26:00,30.4,19.7,29.65,WNW,286,7.0,8.0,64,0.00,,,0.01,Wunderground v.1.15,2013-02-02 22:26:00,
2013-02-02 16:32:00,30.3,19.6,29.65,NW,319,2.0,11.0,64,0.00,,,0.01,Wunderground v.1.15,2013-02-02 22:32:00,
2013-02-02 16:37:00,30.4,20.0,29.66,NW,314,5.0,11.0,65,0.00,,,0.01,Wunderground v.1.15,2013-02-02 22:37:00,
2013-02-02 16:42:00,30.0,19.7,29.65,WNW,285,0.0,4.0,65,0.00,,,0.01,Wunderground v.1.15,2013-02-02 22:42:00,
2013-02-02 16:47:00,29.9,19.6,29.66,West,271,4.0,9.0,65,0.00,,,0.01,Wunderground v.1.15,2013-02-02 22:47:00,
2013-02-02 16:52:00,29.8,19.5,29.65,WNW,292,0.0,7.0,65,0.00,,,0.01,Wunderground v.1.15,2013-02-02 22:52:00,
2013-02-02 16:58:00,29.6,19.3,29.66,West,265,3.0,8.0,65,0.00,,,0.01,Wunderground v.1.15,2013-02-02 22:58:00,
2013-02-02 17:03:00,29.4,19.4,29.66,West,281,5.0,6.0,66,0.00,,,0.01,Wunderground v.1.15,2013-02-02 23:03:00,
2013-02-02 17:09:00,29.4,19.8,29.67,WNW,284,0.0,7.0,67,0.00,,,0.01,Wunderground v.1.15,2013-02-02 23:09:00,
2013-02-02 17:14:00,29.4,19.8,29.65,NW,306,4.0,5.0,67,0.00,,,0.01,Wunderground v.1.15,2013-02-02 23:14:00,
2013-02-02 17:19:00,29.3,19.7,29.65,West,273,4.0,5.0,67,0.00,,,0.01,Wunderground v.1.15,2013-02-02 23:19:00,
2013-02-02 17:24:00,29.3,19.7,29.65,WNW,286,0.0,5.0,67,0.00,,,0.01,Wunderground v.1.15,2013-02-02 23:24:00,
2013-02-02 17:29:00,29.3,19.7,29.65,WNW,286,0.0,6.0,67,0.00,,,0.01,Wunderground v.1.15,2013-02-02 23:29:00,
2013-02-02 17:34:00,29.2,19.6,29.64,WNW,286,0.0,4.0,67,0.00,,,0.01,Wunderground v.1.15,2013-02-02 23:34:00,
2013-02-02 17:40:00,29.2,19.9,29.65,WNW,286,0.0,4.0,68,0.00,,,0.01,Wunderground v.1.15,2013-02-02 23:40:00,
2013-02-02 17:45:00,29.1,19.8,29.64,WNW,302,0.0,6.0,68,0.00,,,0.01,Wunderground v.1.15,2013-02-02 23:45:00,
2013-02-02 17:51:00,29.0,19.8,29.64,West,277,0.0,1.0,68,0.00,,,0.01,Wunderground v.1.15,2013-02-02 23:51:00,
2013-02-02 17:56:00,28.9,19.7,29.64,West,279,4.0,4.0,68,0.00,,,0.01,Wunderground v.1.15,2013-02-02 23:56:00,
2013-02-02 18:01:00,28.8,19.6,29.64,West,279,0.0,0.0,68,0.00,,,0.01,Wunderground v.1.15,2013-02-03 00:01:00,
2013-02-02 18:06:00,28.5,19.3,29.64,WNW,288,0.0,5.0,68,0.00,,,0.01,Wunderground v.1.15,2013-02-03 00:06:00,
2013-02-02 18:12:00,28.4,19.2,29.64,WNW,288,0.0,0.0,68,0.00,,,0.01,Wunderground v.1.15,2013-02-03 00:12:00,
2013-02-02 18:17:00,28.1,19.2,29.64,WNW,288,0.0,0.0,69,0.00,,,0.01,Wunderground v.1.15,2013-02-03 00:17:00,
2013-02-02 18:22:00,28.0,19.1,29.65,WNW,290,2.0,5.0,69,0.00,,,0.01,Wunderground v.1.15,2013-02-03 00:22:00,
2013-02-02 18:27:00,27.8,18.9,29.64,WNW,286,0.0,5.0,69,0.00,,,0.01,Wunderground v.1.15,2013-02-03 00:27:00,
2013-02-02 18:33:00,27.8,19.3,29.65,WNW,286,0.0,2.0,70,0.00,,,0.01,Wunderground v.1.15,2013-02-03 00:33:00,
2013-02-02 18:38:00,27.8,19.3,29.65,WNW,285,0.0,4.0,70,0.00,,,0.01,Wunderground v.1.15,2013-02-03 00:38:00,
2013-02-02 18:43:00,27.7,19.5,29.65,WNW,285,0.0,4.0,71,0.00,,,0.01,Wunderground v.1.15,2013-02-03 00:43:00,
2013-02-02 18:48:00,28.0,19.8,29.65,WNW,286,0.0,5.0,71,0.00,,,0.01,Wunderground v.1.15,2013-02-03 00:48:00,
2013-02-02 18:54:00,27.8,19.6,29.65,WNW,286,0.0,4.0,71,0.00,,,0.01,Wunderground v.1.15,2013-02-03 00:54:00,
2013-02-02 18:59:00,27.9,19.7,29.65,WNW,286,0.0,4.0,71,0.00,,,0.01,Wunderground v.1.15,2013-02-03 00:59:00,
2013-02-02 19:04:00,28.0,19.5,29.64,WNW,286,2.0,2.0,70,0.00,,,0.01,Wunderground v.1.15,2013-02-03 01:04:00,
2013-02-02 19:09:00,28.0,19.5,29.64,WNW,286,0.0,4.0,70,0.00,,,0.01,Wunderground v.1.15,2013-02-03 01:09:00,
2013-02-02 19:15:00,28.4,19.9,29.64,WNW,284,0.0,0.0,70,0.00,,,0.01,Wunderground v.1.15,2013-02-03 01:15:00,
2013-02-02 19:20:00,28.1,19.6,29.64,WNW,286,0.0,0.0,70,0.00,,,0.01,Wunderground v.1.15,2013-02-03 01:20:00,
2013-02-02 19:25:00,28.1,19.6,29.64,WNW,286,0.0,0.0,70,0.00,,,0.01,Wunderground v.1.15,2013-02-03 01:25:00,
2013-02-02 19:31:00,28.1,19.6,29.64,WNW,286,0.0,0.0,70,0.00,,,0.01,Wunderground v.1.15,2013-02-03 01:31:00,
2013-02-02 19:36:00,28.0,19.8,29.64,WNW,286,0.0,0.0,71,0.00,,,0.01,Wunderground v.1.15,2013-02-03 01:36:00,
2013-02-02 19:42:00,28.0,19.8,29.63,WNW,286,0.0,0.0,71,0.00,,,0.01,Wunderground v.1.15,2013-02-03 01:42:00,
2013-02-02 19:48:00,28.0,19.8,29.62,WNW,286,0.0,0.0,71,0.00,,,0.01,Wunderground v.1.15,2013-02-03 01:48:00,
2013-02-02 19:53:00,27.9,19.7,29.62,WNW,284,0.0,0.0,71,0.00,,,0.01,Wunderground v.1.15,2013-02-03 01:53:00,
2013-02-02 19:58:00,27.9,19.7,29.61,WNW,286,0.0,1.0,71,0.00,,,0.01,Wunderground v.1.15,2013-02-03 01:58:00,
2013-02-02 20:03:00,27.9,19.7,29.61,WNW,286,0.0,0.0,71,0.00,,,0.01,Wunderground v.1.15,2013-02-03 02:03:00,
2013-02-02 20:08:00,27.8,19.6,29.61,WNW,286,0.0,0.0,71,0.00,,,0.01,Wunderground v.1.15,2013-02-03 02:08:00,
2013-02-02 20:14:00,27.8,19.6,29.62,WNW,286,0.0,0.0,71,0.00,,,0.01,Wunderground v.1.15,2013-02-03 02:14:00,
2013-02-02 20:19:00,27.8,19.9,29.62,WNW,286,0.0,0.0,72,0.00,,,0.01,Wunderground v.1.15,2013-02-03 02:19:00,
2013-02-02 20:24:00,27.8,20.3,29.62,WNW,286,0.0,0.0,73,0.00,,,0.01,Wunderground v.1.15,2013-02-03 02:24:00,
2013-02-02 20:30:00,27.7,20.2,29.62,WNW,286,0.0,1.0,73,0.00,,,0.01,Wunderground v.1.15,2013-02-03 02:30:00,
2013-02-02 20:35:00,27.5,20.9,29.62,WNW,287,0.0,2.0,76,0.00,,,0.01,Wunderground v.1.15,2013-02-03 02:35:00,
2013-02-02 20:40:00,27.2,20.9,29.62,WNW,287,0.0,2.0,77,0.00,,,0.01,Wunderground v.1.15,2013-02-03 02:40:00,
2013-02-02 20:45:00,26.9,21.3,29.62,WNW,288,0.0,2.0,79,0.00,,,0.01,Wunderground v.1.15,2013-02-03 02:45:00,
2013-02-02 20:50:00,26.6,21.6,29.61,WNW,287,0.0,2.0,81,0.00,,,0.01,Wunderground v.1.15,2013-02-03 02:50:00,
2013-02-02 20:55:00,26.4,21.4,29.61,WNW,287,0.0,0.0,81,0.00,,,0.01,Wunderground v.1.15,2013-02-03 02:55:00,
2013-02-02 21:00:00,26.1,21.4,29.61,WNW,287,0.0,0.0,82,0.00,,,0.01,Wunderground v.1.15,2013-02-03 03:00:00,
2013-02-02 21:05:00,25.9,21.4,29.61,WNW,287,0.0,0.0,83,0.00,,,0.01,Wunderground v.1.15,2013-02-03 03:05:00,
2013-02-02 21:10:00,25.7,21.5,29.61,WNW,287,0.0,0.0,84,0.00,,,0.01,Wunderground v.1.15,2013-02-03 03:10:00,
2013-02-02 21:16:00,25.6,21.7,29.61,WNW,287,0.0,0.0,85,0.00,,,0.01,Wunderground v.1.15,2013-02-03 03:16:00,
2013-02-02 21:21:00,25.7,21.8,29.60,WNW,287,0.0,0.0,85,0.00,,,0.01,Wunderground v.1.15,2013-02-03 03:21:00,
2013-02-02 21:26:00,25.5,21.6,29.60,WNW,287,0.0,0.0,85,0.00,,,0.01,Wunderground v.1.15,2013-02-03 03:26:00,
2013-02-02 21:32:00,25.4,21.5,29.60,WNW,288,0.0,0.0,85,0.00,,,0.01,Wunderground v.1.15,2013-02-03 03:32:00,
2013-02-02 21:37:00,25.4,21.8,29.61,WNW,288,0.0,0.0,86,0.00,,,0.01,Wunderground v.1.15,2013-02-03 03:37:00,
2013-02-02 21:42:00,25.4,21.8,29.60,WNW,287,0.0,0.0,86,0.00,,,0.01,Wunderground v.1.15,2013-02-03 03:42:00,
2013-02-02 21:47:00,25.3,21.7,29.59,WNW,287,0.0,0.0,86,0.00,,,0.01,Wunderground v.1.15,2013-02-03 03:47:00,
2013-02-02 21:52:00,25.3,21.7,29.59,WNW,287,0.0,0.0,86,0.00,,,0.01,Wunderground v.1.15,2013-02-03 03:52:00,
2013-02-02 21:57:00,25.1,22.0,29.59,NNE,24,3.0,4.0,88,0.00,,,0.01,Wunderground v.1.15,2013-02-03 03:57:00,
2013-02-02 22:02:00,25.5,22.4,29.58,NNE,25,0.0,1.0,88,0.00,,,0.01,Wunderground v.1.15,2013-02-03 04:02:00,
2013-02-02 22:07:00,24.8,21.8,29.58,NNE,25,0.0,1.0,88,0.00,,,0.01,Wunderground v.1.15,2013-02-03 04:07:00,
2013-02-02 22:12:00,25.0,21.9,29.57,NNE,25,0.0,0.0,88,0.00,,,0.01,Wunderground v.1.15,2013-02-03 04:12:00,
2013-02-02 22:17:00,25.0,21.9,29.58,NNE,27,2.0,2.0,88,0.00,,,0.01,Wunderground v.1.15,2013-02-03 04:17:00,
2013-02-02 22:22:00,24.8,22.0,29.57,NNE,27,1.0,1.0,89,0.00,,,0.01,Wunderground v.1.15,2013-02-03 04:22:00,
2013-02-02 22:27:00,24.9,21.8,29.57,NNE,27,0.0,1.0,88,0.00,,,0.01,Wunderground v.1.15,2013-02-03 04:27:00,
2013-02-02 22:32:00,24.8,22.0,29.56,NNE,27,0.0,0.0,89,0.00,,,0.01,Wunderground v.1.15,2013-02-03 04:32:00,
2013-02-02 22:37:00,24.8,22.0,29.56,NNE,27,0.0,0.0,89,0.00,,,0.01,Wunderground v.1.15,2013-02-03 04:37:00,
2013-02-02 22:42:00,25.0,22.2,29.56,NNE,27,0.0,0.0,89,0.00,,,0.01,Wunderground v.1.15,2013-02-03 04:42:00,
2013-02-02 22:48:00,24.9,22.1,29.56,NNE,27,0.0,0.0,89,0.00,,,0.01,Wunderground v.1.15,2013-02-03 04:48:00,
2013-02-02 22:55:00,25.0,22.5,29.56,NNE,28,0.0,1.0,90,0.00,,,0.01,Wunderground v.1.15,2013-02-03 04:55:00,
2013-02-02 23:00:00,25.1,22.6,29.56,NNE,28,0.0,1.0,90,0.00,,,0.01,Wunderground v.1.15,2013-02-03 05:00:00,
2013-02-02 23:01:00,25.1,22.6,29.56,NNE,28,0.0,0.0,90,0.00,,,0.01,Wunderground v.1.15,2013-02-03 05:01:00,
2013-02-02 23:02:00,25.1,22.6,29.56,NNE,28,1.0,2.0,90,0.00,,,0.01,Wunderground v.1.15,2013-02-03 05:02:00,
2013-02-02 23:07:00,25.3,22.5,29.55,NNE,30,0.0,2.0,89,0.00,,,0.01,Wunderground v.1.15,2013-02-03 05:07:00,
2013-02-02 23:12:00,25.3,22.8,29.55,NNE,30,0.0,0.0,90,0.00,,,0.01,Wunderground v.1.15,2013-02-03 05:12:00,
2013-02-02 23:17:00,25.3,22.8,29.55,NNE,32,0.0,0.0,90,0.00,,,0.01,Wunderground v.1.15,2013-02-03 05:17:00,
2013-02-02 23:23:00,25.4,22.9,29.55,NNE,32,0.0,0.0,90,0.00,,,0.01,Wunderground v.1.15,2013-02-03 05:23:00,
2013-02-02 23:28:00,25.5,23.0,29.55,NNE,32,0.0,0.0,90,0.00,,,0.01,Wunderground v.1.15,2013-02-03 05:28:00,
2013-02-02 23:34:00,25.6,23.1,29.55,NNE,32,0.0,0.0,90,0.00,,,0.01,Wunderground v.1.15,2013-02-03 05:34:00,
2013-02-02 23:40:00,25.8,23.0,29.55,NNE,32,0.0,0.0,89,0.00,,,0.01,Wunderground v.1.15,2013-02-03 05:40:00,
2013-02-02 23:45:00,25.7,23.2,29.56,NNE,30,0.0,0.0,90,0.00,,,0.01,Wunderground v.1.15,2013-02-03 05:45:00,
2013-02-02 23:51:00,26.2,23.7,29.55,NNE,32,0.0,0.0,90,0.00,,,0.01,Wunderground v.1.15,2013-02-03 05:51:00,
2013-02-02 23:56:00,26.0,23.5,29.56,NNE,32,0.0,0.0,90,0.00,,,0.01,Wunderground v.1.15,2013-02-03 05:56:00,